createdAt,value
2022-08-31T00:00:10.254Z,97653.47
2022-08-31T00:02:56.129Z,97650.72
2022-08-31T00:05:23.077Z,97648.66
2022-08-31T00:07:49.791Z,97648.44
2022-08-31T00:10:18.745Z,97654.47
2022-08-31T00:12:48.897Z,97649.94
2022-08-31T00:15:18.694Z,97643.69
2022-08-31T00:17:47.649Z,97646.84
2022-08-31T00:20:32.713Z,97642.53
2022-08-31T00:23:06.136Z,97643.72
2022-08-31T00:25:34.329Z,97652.53
2022-08-31T00:28:01.974Z,97651.09
2022-08-31T00:30:28.939Z,97654.75
2022-08-31T00:32:58.245Z,97656.28
2022-08-31T00:35:26.585Z,97656.06
2022-08-31T00:37:53.320Z,97658.22
2022-08-31T00:40:21.166Z,97652.56
2022-08-31T00:42:47.876Z,97651.63
2022-08-31T00:45:15.028Z,97655.59
2022-08-31T00:47:41.890Z,97660.63
2022-08-31T00:50:12.853Z,97659.44
2022-08-31T00:52:43.071Z,97655.84
2022-08-31T00:55:43.935Z,97653.69
2022-08-31T00:58:12.347Z,97648.47
2022-08-31T01:00:40.538Z,97650.66
2022-08-31T01:03:08.549Z,97646.06
2022-08-31T01:05:36.686Z,97647.97
2022-08-31T01:08:05.313Z,97650.66
2022-08-31T01:10:38.461Z,97646.81
2022-08-31T01:13:06.942Z,97646.81
2022-08-31T01:15:37.053Z,97652.97
2022-08-31T01:18:05.961Z,97642.84
2022-08-31T01:20:49.033Z,97645.84
2022-08-31T01:23:33.320Z,97650.03
2022-08-31T01:26:02.506Z,97646.69
2022-08-31T01:28:29.229Z,97642.25
2022-08-31T01:31:05.958Z,97642.84
2022-08-31T01:33:34.590Z,97654.88
2022-08-31T01:36:01.787Z,97643.41
2022-08-31T01:38:29.606Z,97647.47
2022-08-31T01:40:59.517Z,97643.88
2022-08-31T01:43:26.386Z,97646.66
2022-08-31T01:45:53.156Z,97643.03
2022-08-31T01:48:20.661Z,97641.97
2022-08-31T01:50:48.079Z,97641.13
2022-08-31T01:53:15.174Z,97640.69
2022-08-31T01:55:42.375Z,97640.31
2022-08-31T01:58:09.319Z,97641.88
2022-08-31T02:00:36.805Z,97642.59
2022-08-31T02:03:05.139Z,97640.31
2022-08-31T02:05:31.793Z,97636.75
2022-08-31T02:07:58.512Z,97640.09
2022-08-31T02:10:25.442Z,97630.25
2022-08-31T02:12:52.072Z,97629.50
2022-08-31T02:15:18.801Z,97628.81
2022-08-31T02:17:45.603Z,97620.91
2022-08-31T02:20:14.466Z,97619.44
2022-08-31T02:22:41.246Z,97625.81
2022-08-31T02:25:09.383Z,97628.47
2022-08-31T02:27:37.096Z,97623.75
2022-08-31T02:30:10.767Z,97627.13
2022-08-31T02:32:37.438Z,97626.75
2022-08-31T02:35:05.148Z,97624.59
2022-08-31T02:37:32.043Z,97625.31
2022-08-31T02:39:59.280Z,97626.19
2022-08-31T02:42:29.004Z,97626.53
2022-08-31T02:45:00.386Z,97615.16
2022-08-31T02:47:27.512Z,97607.09
2022-08-31T02:49:54.166Z,97611.28
2022-08-31T02:52:21.037Z,97611.06
2022-08-31T02:54:47.747Z,97610.56
2022-08-31T02:57:14.577Z,97609.16
2022-08-31T02:59:41.309Z,97612.13
2022-08-31T03:02:08.137Z,97611.78
2022-08-31T03:04:35.058Z,97614.91
2022-08-31T03:07:02.214Z,97613.44
2022-08-31T03:09:29.093Z,97616.59
2022-08-31T03:11:55.621Z,97616.81
2022-08-31T03:14:22.330Z,97621.13
2022-08-31T03:16:51.893Z,97612.13
2022-08-31T03:19:19.125Z,97625.94
2022-08-31T03:21:47.658Z,97618.25
2022-08-31T03:24:22.053Z,97628.56
2022-08-31T03:26:54.660Z,97624.13
2022-08-31T03:29:21.314Z,97615.59
2022-08-31T03:31:48.138Z,97627.13
2022-08-31T03:34:16.112Z,97631.47
2022-08-31T03:36:42.820Z,97623.44
2022-08-31T03:39:09.723Z,97630.13
2022-08-31T03:41:36.410Z,97627.50
2022-08-31T03:44:03.775Z,97626.28
2022-08-31T03:46:33.541Z,97622.94
2022-08-31T03:49:01.553Z,97619.69
2022-08-31T03:51:28.310Z,97624.38
2022-08-31T03:53:55.280Z,97623.66
2022-08-31T03:56:22.254Z,97624.00
2022-08-31T03:58:48.998Z,97632.16
2022-08-31T04:01:15.690Z,97624.47
2022-08-31T04:03:42.589Z,97621.22
2022-08-31T04:06:11.392Z,97619.47
2022-08-31T04:08:38.485Z,97617.19
2022-08-31T04:11:12.492Z,97622.72
2022-08-31T04:13:40.408Z,97626.75
2022-08-31T04:16:09.607Z,97624.59
2022-08-31T04:18:37.242Z,97630.63
2022-08-31T04:21:04.221Z,97628.09
2022-08-31T04:23:31.169Z,97627.88
2022-08-31T04:25:58.137Z,97634.13
2022-08-31T04:28:25.421Z,97629.94
2022-08-31T04:30:52.194Z,97631.13
2022-08-31T04:33:19.495Z,97626.56
2022-08-31T04:35:46.442Z,97625.34
2022-08-31T04:38:13.498Z,97626.44
2022-08-31T04:40:42.281Z,97626.53
2022-08-31T04:43:08.981Z,97638.19
2022-08-31T04:45:40.774Z,97631.94
2022-08-31T04:48:08.605Z,97627.72
2022-08-31T04:50:37.359Z,97634.22
2022-08-31T04:53:07.550Z,97634.31
2022-08-31T04:55:34.238Z,97636.63
2022-08-31T04:58:00.992Z,97638.53
2022-08-31T05:00:28.239Z,97642.13
2022-08-31T05:02:55.039Z,97645.34
2022-08-31T05:05:21.966Z,97644.16
2022-08-31T05:07:48.611Z,97645.09
2022-08-31T05:10:15.786Z,97654.19
2022-08-31T05:12:44.311Z,97648.19
2022-08-31T05:15:11.497Z,97653.34
2022-08-31T05:17:38.265Z,97652.41
2022-08-31T05:20:06.205Z,97654.53
2022-08-31T05:22:33.353Z,97663.19
2022-08-31T05:25:00.030Z,97659.81
2022-08-31T05:27:26.685Z,97664.63
2022-08-31T05:29:53.491Z,97665.94
2022-08-31T05:32:20.196Z,97665.72
2022-08-31T05:34:47.118Z,97677.72
2022-08-31T05:37:14.418Z,97668.34
2022-08-31T05:39:41.112Z,97672.72
2022-08-31T05:42:08.003Z,97670.19
2022-08-31T05:44:35.632Z,97677.59
2022-08-31T05:47:04.051Z,97675.66
2022-08-31T05:49:32.280Z,97684.16
2022-08-31T05:52:00.059Z,97686.44
2022-08-31T05:54:27.165Z,97673.25
2022-08-31T05:56:53.754Z,97679.34
2022-08-31T05:59:20.611Z,97675.47
2022-08-31T06:01:47.322Z,97676.91
2022-08-31T06:04:13.985Z,97685.19
2022-08-31T06:06:41.241Z,97687.94
2022-08-31T06:09:08.674Z,97680.28
2022-08-31T06:11:36.015Z,97685.47
2022-08-31T06:14:03.974Z,97690.28
2022-08-31T06:16:30.807Z,97684.97
2022-08-31T06:18:57.719Z,97684.38
2022-08-31T06:21:31.005Z,97687.25
2022-08-31T06:23:58.166Z,97684.75
2022-08-31T06:26:26.664Z,97683.78
2022-08-31T06:28:55.121Z,97680.06
2022-08-31T06:31:36.160Z,97688.97
2022-08-31T06:34:06.521Z,97678.03
2022-08-31T06:36:33.857Z,97687.03
2022-08-31T06:39:01.685Z,97691.28
2022-08-31T06:41:36.426Z,97692.72
2022-08-31T06:44:06.405Z,97693.47
2022-08-31T06:46:34.428Z,97689.91
2022-08-31T06:49:01.328Z,97690.09
2022-08-31T06:51:28.502Z,97684.78
2022-08-31T06:53:55.741Z,97683.22
2022-08-31T06:56:25.336Z,97688.38
2022-08-31T06:58:53.579Z,97682.72
2022-08-31T07:01:35.191Z,97680.09
2022-08-31T07:04:05.639Z,97682.22
2022-08-31T07:06:36.540Z,97674.16
2022-08-31T07:09:06.440Z,97679.25
2022-08-31T07:11:44.601Z,97684.50
2022-08-31T07:14:14.572Z,97680.00
2022-08-31T07:16:42.680Z,97682.78
2022-08-31T07:19:10.345Z,97681.94
2022-08-31T07:21:46.110Z,97683.41
2022-08-31T07:24:14.879Z,97686.97
2022-08-31T07:26:54.434Z,97686.69
2022-08-31T07:29:23.222Z,97693.66
2022-08-31T07:31:50.523Z,97692.44
2022-08-31T07:34:26.762Z,97694.38
2022-08-31T07:37:14.075Z,97695.41
2022-08-31T07:40:04.694Z,97693.84
2022-08-31T07:42:37.984Z,97701.44
2022-08-31T07:45:07.372Z,97700.50
2022-08-31T07:47:46.051Z,97699.78
2022-08-31T07:50:14.645Z,97705.56
2022-08-31T07:52:53.042Z,97713.06
2022-08-31T07:55:21.781Z,97713.81
2022-08-31T07:57:50.773Z,97711.91
2022-08-31T08:00:26.508Z,97710.88
2022-08-31T08:02:54.135Z,97704.63
2022-08-31T08:05:27.416Z,97706.81
2022-08-31T08:07:58.628Z,97707.41
2022-08-31T08:10:26.235Z,97710.88
2022-08-31T08:13:05.024Z,97708.75
2022-08-31T08:15:35.681Z,97717.56
2022-08-31T08:18:04.369Z,97717.16
2022-08-31T08:20:34.444Z,97712.16
2022-08-31T08:23:28.552Z,97719.50
2022-08-31T08:25:56.314Z,97722.28
2022-08-31T08:28:42.352Z,97728.91
2022-08-31T08:31:16.046Z,97730.25
2022-08-31T08:33:43.280Z,97730.50
2022-08-31T08:36:10.416Z,97725.56
2022-08-31T08:38:39.768Z,97725.91
2022-08-31T08:41:13.138Z,97733.25
2022-08-31T08:43:43.906Z,97736.47
2022-08-31T08:46:33.616Z,97742.16
2022-08-31T08:49:07.975Z,97742.50
2022-08-31T08:51:39.495Z,97749.81
2022-08-31T08:54:20.611Z,97753.66
2022-08-31T08:56:48.967Z,97761.81
2022-08-31T08:59:19.624Z,97766.63
2022-08-31T09:01:50.916Z,97763.88
2022-08-31T09:04:44.415Z,97762.09
2022-08-31T09:07:39.469Z,97768.91
2022-08-31T09:10:41.915Z,97781.28
2022-08-31T09:13:34.467Z,97772.28
2022-08-31T09:16:39.116Z,97779.97
2022-08-31T09:19:14.567Z,97795.22
2022-08-31T09:21:58.346Z,97801.69
2022-08-31T09:24:28.111Z,97799.53
2022-08-31T09:27:17.325Z,97803.25
2022-08-31T09:30:03.017Z,97797.50
2022-08-31T09:32:36.037Z,97803.00
2022-08-31T09:35:09.227Z,97802.53
2022-08-31T09:37:46.370Z,97800.84
2022-08-31T09:40:24.371Z,97803.84
2022-08-31T09:43:28.784Z,97803.38
2022-08-31T09:46:07.357Z,97804.22
2022-08-31T09:48:52.336Z,97809.34
2022-08-31T09:51:31.103Z,97807.34
2022-08-31T09:54:36.766Z,97812.13
2022-08-31T09:57:09.889Z,97807.69
2022-08-31T09:59:48.321Z,97818.03
2022-08-31T10:02:38.011Z,97811.41
2022-08-31T10:05:25.816Z,97826.19
2022-08-31T10:08:07.182Z,97830.97
2022-08-31T10:10:38.388Z,97827.97
2022-08-31T10:13:36.310Z,97841.31
2022-08-31T10:16:23.087Z,97830.25
2022-08-31T10:19:16.152Z,97840.34
2022-08-31T10:21:59.979Z,97833.41
2022-08-31T10:24:44.797Z,97831.34
2022-08-31T10:27:45.231Z,97827.41
2022-08-31T10:30:24.185Z,97828.09
2022-08-31T10:33:01.083Z,97831.13
2022-08-31T10:35:41.194Z,97823.31
2022-08-31T10:38:26.310Z,97827.59
2022-08-31T10:41:33.051Z,97831.94
2022-08-31T10:44:06.391Z,97827.50
2022-08-31T10:46:35.593Z,97821.59
2022-08-31T10:49:04.473Z,97832.56
2022-08-31T10:51:43.651Z,97831.94
2022-08-31T10:54:47.935Z,97831.22
2022-08-31T10:58:02.769Z,97836.13
2022-08-31T11:00:45.842Z,97831.94
2022-08-31T11:04:00.813Z,97836.13
2022-08-31T11:06:45.094Z,97826.41
2022-08-31T11:09:44.887Z,97835.66
2022-08-31T11:12:18.464Z,97841.56
2022-08-31T11:15:24.287Z,97845.75
2022-08-31T11:18:50.749Z,97846.69
2022-08-31T11:21:39.709Z,97844.69
2022-08-31T11:24:36.437Z,97845.88
2022-08-31T11:27:40.841Z,97843.50
2022-08-31T11:30:24.115Z,97849.00
2022-08-31T11:33:00.311Z,97845.63
2022-08-31T11:36:07.705Z,97850.19
2022-08-31T11:41:54.465Z,97846.47
2022-08-31T11:45:10.035Z,97857.16
2022-08-31T11:47:43.397Z,97851.53
2022-08-31T11:50:38.922Z,97849.72
2022-08-31T11:53:34.946Z,97854.28
2022-08-31T11:56:05.213Z,97861.50
2022-08-31T11:58:34.991Z,97852.97
2022-08-31T12:01:09.352Z,97863.66
2022-08-31T12:04:06.601Z,97860.78
2022-08-31T12:07:04.172Z,97858.63
2022-08-31T12:10:11.267Z,97855.16
2022-08-31T12:13:19.574Z,97858.84
2022-08-31T12:15:58.727Z,97857.03
2022-08-31T12:19:33.101Z,97852.72
2022-08-31T12:22:30.348Z,97853.09
2022-08-31T12:25:16.862Z,97854.28
2022-08-31T12:28:11.089Z,97861.38
2022-08-31T12:30:48.523Z,97872.53
2022-08-31T12:33:19.709Z,97861.00
2022-08-31T12:35:49.586Z,97869.91
2022-08-31T12:38:21.625Z,97861.72
2022-08-31T12:40:51.651Z,97868.94
2022-08-31T12:43:25.877Z,97864.97
2022-08-31T12:46:05.135Z,97871.13
2022-08-31T12:49:16.666Z,97872.78
2022-08-31T12:52:20.325Z,97871.81
2022-08-31T12:55:23.750Z,97863.31
2022-08-31T12:58:23.810Z,97863.41
2022-08-31T13:00:50.703Z,97863.63
2022-08-31T13:03:23.061Z,97864.47
2022-08-31T13:06:08.890Z,97858.09
2022-08-31T13:08:44.781Z,97857.38
2022-08-31T13:11:40.006Z,97866.63
2022-08-31T13:14:24.731Z,97865.44
2022-08-31T13:16:59.495Z,97864.25
2022-08-31T13:19:29.568Z,97867.50
2022-08-31T13:21:59.246Z,97872.41
2022-08-31T13:24:32.898Z,97872.25
2022-08-31T13:27:24.602Z,97860.97
2022-08-31T13:29:53.507Z,97867.22
2022-08-31T13:32:32.896Z,97872.47
2022-08-31T13:35:04.239Z,97875.59
2022-08-31T13:37:41.355Z,97874.97
2022-08-31T13:40:12.789Z,97869.34
2022-08-31T13:42:45.656Z,97871.25
2022-08-31T13:45:27.473Z,97875.69
2022-08-31T13:48:16.093Z,97873.34
2022-08-31T13:50:53.642Z,97881.50
2022-08-31T13:53:39.366Z,97871.66
2022-08-31T13:56:55.570Z,97871.03
2022-08-31T13:59:29.810Z,97868.38
2022-08-31T14:02:20.241Z,97863.91
2022-08-31T14:05:00.301Z,97869.31
2022-08-31T14:07:58.064Z,97868.97
2022-08-31T14:10:38.914Z,97862.81
2022-08-31T14:13:18.851Z,97864.63
2022-08-31T14:16:03.003Z,97869.16
2022-08-31T14:18:40.357Z,97870.22
2022-08-31T14:21:22.665Z,97867.84
2022-08-31T14:23:54.480Z,97867.84
2022-08-31T14:26:26.290Z,97871.19
2022-08-31T14:28:55.539Z,97870.13
2022-08-31T14:31:37.228Z,97874.81
2022-08-31T14:34:19.096Z,97870.25
2022-08-31T14:36:52.878Z,97878.91
2022-08-31T14:39:34.069Z,97870.16
2022-08-31T14:42:18.236Z,97874.50
2022-08-31T14:45:07.384Z,97874.00
2022-08-31T14:47:38.800Z,97873.16
2022-08-31T14:50:06.009Z,97878.91
2022-08-31T14:52:39.244Z,97867.88
2022-08-31T14:55:09.042Z,97872.91
2022-08-31T14:57:36.650Z,97869.59
2022-08-31T15:00:05.920Z,97879.06
2022-08-31T15:02:33.752Z,97876.75
2022-08-31T15:05:04.658Z,97880.56
2022-08-31T15:07:33.377Z,97879.28
2022-08-31T15:10:00.409Z,97880.00
2022-08-31T15:12:27.077Z,97882.38
2022-08-31T15:14:59.955Z,97884.63
2022-08-31T15:17:33.864Z,97879.09
2022-08-31T15:20:03.542Z,97885.72
2022-08-31T15:22:31.354Z,97881.88
2022-08-31T15:24:58.304Z,97877.69
2022-08-31T15:27:29.132Z,97877.69
2022-08-31T15:30:02.529Z,97874.47
2022-08-31T15:32:29.543Z,97874.56
2022-08-31T15:34:58.942Z,97864.53
2022-08-31T15:37:32.009Z,97871.25
2022-08-31T15:40:01.210Z,97871.50
2022-08-31T15:42:29.536Z,97872.19
2022-08-31T15:45:00.427Z,97865.25
2022-08-31T15:47:54.724Z,97870.72
2022-08-31T15:50:25.904Z,97857.66
2022-08-31T15:53:00.971Z,97855.38
2022-08-31T15:55:27.850Z,97862.91
2022-08-31T15:57:58.302Z,97858.97
2022-08-31T16:00:27.839Z,97857.78
2022-08-31T16:02:57.474Z,97864.16
2022-08-31T16:05:30.513Z,97860.31
2022-08-31T16:07:57.344Z,97855.50
2022-08-31T16:10:24.684Z,97861.72
2022-08-31T16:12:52.066Z,97851.88
2022-08-31T16:15:21.290Z,97855.94
2022-08-31T16:17:50.962Z,97863.03
2022-08-31T16:20:17.715Z,97864.13
2022-08-31T16:22:44.643Z,97857.84
2022-08-31T16:25:14.087Z,97860.50
2022-08-31T16:27:41.584Z,97852.31
2022-08-31T16:30:10.057Z,97857.94
2022-08-31T16:32:36.906Z,97852.88
2022-08-31T16:35:05.593Z,97852.28
2022-08-31T16:37:32.886Z,97851.81
2022-08-31T16:39:59.659Z,97850.38
2022-08-31T16:42:26.678Z,97850.47
2022-08-31T16:44:59.769Z,97847.00
2022-08-31T16:47:29.311Z,97854.09
2022-08-31T16:49:58.973Z,97845.78
2022-08-31T16:52:30.977Z,97851.31
2022-08-31T16:54:57.662Z,97856.69
2022-08-31T16:57:27.600Z,97864.94
2022-08-31T16:59:56.035Z,97870.22
2022-08-31T17:02:24.468Z,97864.75
2022-08-31T17:04:53.776Z,97855.78
2022-08-31T17:07:23.232Z,97855.78
2022-08-31T17:09:50.069Z,97855.41
2022-08-31T17:12:19.170Z,97850.97
2022-08-31T17:14:49.967Z,97863.22
2022-08-31T17:17:19.682Z,97857.09
2022-08-31T17:19:47.074Z,97859.38
2022-08-31T17:22:23.375Z,97862.75
2022-08-31T17:24:56.316Z,97864.66
2022-08-31T17:27:24.720Z,97872.00
2022-08-31T17:29:53.890Z,97876.91
2022-08-31T17:32:24.328Z,97872.84
2022-08-31T17:34:54.372Z,97872.50
2022-08-31T17:37:25.933Z,97878.22
2022-08-31T17:39:53.028Z,97874.03
2022-08-31T17:42:26.865Z,97881.31
2022-08-31T17:44:54.591Z,97878.03
2022-08-31T17:47:22.852Z,97877.31
2022-08-31T17:49:52.673Z,97882.81
2022-08-31T17:52:21.578Z,97883.28
2022-08-31T17:54:50.972Z,97878.38
2022-08-31T17:57:19.904Z,97884.00
2022-08-31T17:59:50.580Z,97878.94
2022-08-31T18:02:25.384Z,97884.00
2022-08-31T18:04:52.791Z,97889.13
2022-08-31T18:07:20.422Z,97895.94
2022-08-31T18:09:47.161Z,97897.00
2022-08-31T18:12:21.758Z,97903.25
2022-08-31T18:14:48.571Z,97905.13
2022-08-31T18:17:17.968Z,97905.41
2022-08-31T18:19:45.136Z,97914.13
2022-08-31T18:22:14.414Z,97916.31
2022-08-31T18:24:42.768Z,97916.47
2022-08-31T18:27:11.516Z,97919.88
2022-08-31T18:29:38.835Z,97922.31
2022-08-31T18:32:07.791Z,97922.75
2022-08-31T18:34:39.050Z,97926.09
2022-08-31T18:37:07.275Z,97923.34
2022-08-31T18:40:00.085Z,97925.75
2022-08-31T18:42:46.120Z,97935.34
2022-08-31T18:45:15.555Z,97930.69
2022-08-31T18:47:43.346Z,97931.25
2022-08-31T18:50:10.640Z,97936.06
2022-08-31T18:52:40.393Z,97936.59
2022-08-31T18:55:15.482Z,97940.84
2022-08-31T18:57:48.822Z,97936.78
2022-08-31T19:00:17.849Z,97929.22
2022-08-31T19:02:45.303Z,97927.59
2022-08-31T19:05:14.218Z,97935.34
2022-08-31T19:07:41.531Z,97936.59
2022-08-31T19:10:13.646Z,97937.66
2022-08-31T19:12:42.846Z,97931.53
2022-08-31T19:15:11.288Z,97930.81
2022-08-31T19:17:40.046Z,97929.69
2022-08-31T19:20:10.152Z,97931.72
2022-08-31T19:22:37.693Z,97941.47
2022-08-31T19:25:07.075Z,97943.63
2022-08-31T19:27:35.342Z,97948.53
2022-08-31T19:30:05.934Z,97941.00
2022-08-31T19:32:33.653Z,97946.34
2022-08-31T19:35:00.457Z,97944.31
2022-08-31T19:37:27.689Z,97933.41
2022-08-31T19:39:54.437Z,97946.16
2022-08-31T19:42:39.746Z,97940.66
2022-08-31T19:45:24.257Z,97945.44
2022-08-31T19:47:51.501Z,97943.88
2022-08-31T19:50:18.267Z,97947.34
2022-08-31T19:52:45.554Z,97949.22
2022-08-31T19:55:12.411Z,97952.28
2022-08-31T19:57:39.866Z,97953.91
2022-08-31T20:00:09.947Z,97950.03
2022-08-31T20:02:37.268Z,97959.03
2022-08-31T20:05:06.299Z,97953.69
2022-08-31T20:07:35.051Z,97956.44
2022-08-31T20:10:04.131Z,97961.69
2022-08-31T20:12:30.812Z,97954.56
2022-08-31T20:14:57.419Z,97952.72
2022-08-31T20:17:24.389Z,97962.88
2022-08-31T20:19:52.188Z,97966.50
2022-08-31T20:22:23.785Z,97957.41
2022-08-31T20:24:55.635Z,97957.53
2022-08-31T20:27:22.416Z,97953.34
2022-08-31T20:29:49.839Z,97950.59
2022-08-31T20:32:16.727Z,97962.81
2022-08-31T20:34:44.662Z,97955.56
2022-08-31T20:37:12.731Z,97950.22
2022-08-31T20:39:39.653Z,97952.53
2022-08-31T20:42:07.729Z,97950.50
2022-08-31T20:44:37.151Z,97958.03
2022-08-31T20:47:26.488Z,97962.81
2022-08-31T20:50:01.493Z,97959.06
2022-08-31T20:52:32.103Z,97955.56
2022-08-31T20:55:01.989Z,97958.31
2022-08-31T20:57:33.989Z,97952.38
2022-08-31T21:00:05.095Z,97960.34
2022-08-31T21:02:32.151Z,97956.28
2022-08-31T21:05:15.168Z,97952.06
2022-08-31T21:07:47.117Z,97952.22
2022-08-31T21:10:14.746Z,97954.13
2022-08-31T21:12:41.437Z,97958.75
2022-08-31T21:15:10.207Z,97956.38
2022-08-31T21:17:36.955Z,97957.25
2022-08-31T21:20:05.266Z,97945.66
2022-08-31T21:22:34.944Z,97952.63
2022-08-31T21:25:02.207Z,97950.28
2022-08-31T21:27:30.003Z,97945.78
2022-08-31T21:29:57.166Z,97947.47
2022-08-31T21:32:23.792Z,97943.28
2022-08-31T21:34:50.599Z,97937.19
2022-08-31T21:37:17.182Z,97932.81
2022-08-31T21:39:44.029Z,97939.31
2022-08-31T21:42:10.656Z,97933.78
2022-08-31T21:44:38.149Z,97934.53
2022-08-31T21:47:07.947Z,97934.66
2022-08-31T21:49:34.567Z,97933.50
2022-08-31T21:52:02.201Z,97939.47
2022-08-31T21:54:29.188Z,97939.91
2022-08-31T21:57:01.763Z,97942.38
2022-08-31T21:59:35.190Z,97955.63
2022-08-31T22:02:09.254Z,97948.81
2022-08-31T22:04:40.323Z,97945.94
2022-08-31T22:07:08.171Z,97953.03
2022-08-31T22:09:36.085Z,97950.84
2022-08-31T22:12:06.509Z,97945.94
2022-08-31T22:14:38.025Z,97943.19
2022-08-31T22:17:06.876Z,97950.84
2022-08-31T22:19:38.904Z,97946.94
2022-08-31T22:22:11.980Z,97941.88
2022-08-31T22:24:40.688Z,97947.38
2022-08-31T22:27:10.269Z,97937.81
2022-08-31T22:29:38.658Z,97941.69
2022-08-31T22:32:12.459Z,97939.28
2022-08-31T22:34:42.168Z,97937.34
2022-08-31T22:37:11.201Z,97939.53
2022-08-31T22:39:40.364Z,97936.19
2022-08-31T22:42:08.589Z,97933.75
2022-08-31T22:44:37.560Z,97943.75
2022-08-31T22:47:04.760Z,97947.41
2022-08-31T22:49:31.458Z,97941.50
2022-08-31T22:51:58.305Z,97944.53
2022-08-31T22:54:26.127Z,97938.41
2022-08-31T22:56:53.154Z,97938.84
2022-08-31T22:59:27.012Z,97932.28
2022-08-31T23:01:56.805Z,97928.38
2022-08-31T23:04:26.369Z,97927.66
2022-08-31T23:06:53.247Z,97927.06
2022-08-31T23:09:22.211Z,97923.00
2022-08-31T23:11:51.685Z,97923.47
2022-08-31T23:14:21.065Z,97921.44
2022-08-31T23:16:57.034Z,97921.53
2022-08-31T23:19:30.410Z,97914.16
2022-08-31T23:21:57.864Z,97921.84
2022-08-31T23:24:37.952Z,97921.84
2022-08-31T23:27:07.372Z,97913.59
2022-08-31T23:29:40.019Z,97927.06
2022-08-31T23:32:11.627Z,97926.66
2022-08-31T23:34:38.744Z,97921.72
2022-08-31T23:37:08.617Z,97909.53
2022-08-31T23:39:41.080Z,97917.22
2022-08-31T23:42:07.690Z,97903.16
2022-08-31T23:44:36.305Z,97920.13
2022-08-31T23:47:02.950Z,97908.13
2022-08-31T23:49:29.788Z,97909.56
2022-08-31T23:51:56.698Z,97905.09
2022-08-31T23:54:23.274Z,97905.81
2022-08-31T23:56:52.255Z,97914.94
2022-08-31T23:59:19.865Z,97917.56
